sensor_id;sensor_type;location;lat;lon;timestamp;pressure;altitude;pressure_sealevel;temperature;humidity
8573;BME280;4324;42.012;24.872;2023-05-02T00:00:26;99355.56;;;14.85;48.81
8573;BME280;4324;42.012;24.872;2023-05-02T00:02:53;99349.31;;;14.78;49.01
8573;BME280;4324;42.012;24.872;2023-05-02T00:05:20;99362.28;;;14.81;48.67
8573;BME280;4324;42.012;24.872;2023-05-02T00:07:47;99357.97;;;14.80;48.82
8573;BME280;4324;42.012;24.872;2023-05-02T00:10:14;99370.00;;;14.76;49.08
8573;BME280;4324;42.012;24.872;2023-05-02T00:12:41;99334.91;;;14.58;49.36
8573;BME280;4324;42.012;24.872;2023-05-02T00:15:08;99360.34;;;14.75;48.64
8573;BME280;4324;42.012;24.872;2023-05-02T00:17:39;99324.97;;;14.51;48.73
8573;BME280;4324;42.012;24.872;2023-05-02T00:20:07;99355.28;;;14.65;49.42
8573;BME280;4324;42.012;24.872;2023-05-02T00:22:35;99335.06;;;14.56;49.45
8573;BME280;4324;42.012;24.872;2023-05-02T00:25:02;99321.69;;;14.41;49.91
8573;BME280;4324;42.012;24.872;2023-05-02T00:27:29;99354.72;;;14.55;50.01
8573;BME280;4324;42.012;24.872;2023-05-02T00:29:57;99351.06;;;14.56;49.87
8573;BME280;4324;42.012;24.872;2023-05-02T00:32:25;99369.81;;;14.63;49.95
8573;BME280;4324;42.012;24.872;2023-05-02T00:34:53;99378.16;;;14.60;50.07
8573;BME280;4324;42.012;24.872;2023-05-02T00:37:20;99382.66;;;14.59;49.98
8573;BME280;4324;42.012;24.872;2023-05-02T00:39:47;99378.06;;;14.53;50.46
8573;BME280;4324;42.012;24.872;2023-05-02T00:42:13;99381.56;;;14.54;49.57
8573;BME280;4324;42.012;24.872;2023-05-02T00:44:40;99386.56;;;14.48;49.31
8573;BME280;4324;42.012;24.872;2023-05-02T00:47:07;99390.91;;;14.49;49.70
8573;BME280;4324;42.012;24.872;2023-05-02T00:49:34;99362.84;;;14.24;49.91
8573;BME280;4324;42.012;24.872;2023-05-02T00:52:02;99388.13;;;14.43;49.83
8573;BME280;4324;42.012;24.872;2023-05-02T00:54:30;99380.41;;;14.33;49.68
8573;BME280;4324;42.012;24.872;2023-05-02T00:56:57;99316.84;;;13.92;48.93
8573;BME280;4324;42.012;24.872;2023-05-02T00:59:24;99390.50;;;14.38;49.51
8573;BME280;4324;42.012;24.872;2023-05-02T01:01:59;99383.13;;;14.25;49.63
8573;BME280;4324;42.012;24.872;2023-05-02T01:04:39;99392.06;;;14.32;49.88
8573;BME280;4324;42.012;24.872;2023-05-02T01:07:21;99356.63;;;14.09;49.83
8573;BME280;4324;42.012;24.872;2023-05-02T01:10:03;99395.25;;;14.27;49.40
8573;BME280;4324;42.012;24.872;2023-05-02T01:12:40;99400.13;;;14.24;49.73
8573;BME280;4324;42.012;24.872;2023-05-02T01:15:11;99385.03;;;14.16;49.82
8573;BME280;4324;42.012;24.872;2023-05-02T01:17:40;99399.66;;;14.20;50.39
8573;BME280;4324;42.012;24.872;2023-05-02T01:20:12;99317.22;;;13.66;50.27
8573;BME280;4324;42.012;24.872;2023-05-02T01:22:41;99402.84;;;14.16;49.69
8573;BME280;4324;42.012;24.872;2023-05-02T01:25:18;99409.19;;;14.15;49.80
8573;BME280;4324;42.012;24.872;2023-05-02T01:27:52;99390.78;;;14.05;50.08
8573;BME280;4324;42.012;24.872;2023-05-02T01:30:25;99403.75;;;14.08;50.61
8573;BME280;4324;42.012;24.872;2023-05-02T01:32:54;99382.22;;;13.95;49.98
8573;BME280;4324;42.012;24.872;2023-05-02T01:35:24;99381.91;;;13.90;49.71
8573;BME280;4324;42.012;24.872;2023-05-02T01:37:52;99392.88;;;13.95;49.88
8573;BME280;4324;42.012;24.872;2023-05-02T01:40:20;99397.38;;;13.94;50.05
8573;BME280;4324;42.012;24.872;2023-05-02T01:42:50;99409.31;;;13.98;50.49
8573;BME280;4324;42.012;24.872;2023-05-02T01:45:20;99403.69;;;13.93;50.34
8573;BME280;4324;42.012;24.872;2023-05-02T01:47:49;99401.34;;;13.98;50.12
8573;BME280;4324;42.012;24.872;2023-05-02T01:50:20;99402.16;;;13.99;50.31
8573;BME280;4324;42.012;24.872;2023-05-02T01:52:50;99400.69;;;13.96;50.53
8573;BME280;4324;42.012;24.872;2023-05-02T01:55:18;99403.34;;;13.96;50.43
8573;BME280;4324;42.012;24.872;2023-05-02T01:57:46;99386.78;;;13.86;50.57
8573;BME280;4324;42.012;24.872;2023-05-02T02:00:16;99405.38;;;13.94;50.44
8573;BME280;4324;42.012;24.872;2023-05-02T02:02:45;99390.97;;;13.80;50.66
8573;BME280;4324;42.012;24.872;2023-05-02T02:05:17;99363.63;;;13.64;50.58
8573;BME280;4324;42.012;24.872;2023-05-02T02:07:45;99393.81;;;13.79;50.93
8573;BME280;4324;42.012;24.872;2023-05-02T02:10:12;99413.38;;;13.86;50.53
8573;BME280;4324;42.012;24.872;2023-05-02T02:12:41;99372.50;;;13.56;50.37
8573;BME280;4324;42.012;24.872;2023-05-02T02:15:12;99364.72;;;13.54;50.35
8573;BME280;4324;42.012;24.872;2023-05-02T02:17:45;99399.19;;;13.71;51.26
8573;BME280;4324;42.012;24.872;2023-05-02T02:20:16;99402.50;;;13.73;50.85
8573;BME280;4324;42.012;24.872;2023-05-02T02:22:44;99400.19;;;13.70;50.89
8573;BME280;4324;42.012;24.872;2023-05-02T02:25:15;99397.72;;;13.68;50.91
8573;BME280;4324;42.012;24.872;2023-05-02T02:27:43;99391.59;;;13.60;51.03
8573;BME280;4324;42.012;24.872;2023-05-02T02:30:11;99401.91;;;13.63;51.31
8573;BME280;4324;42.012;24.872;2023-05-02T02:32:38;99404.22;;;13.66;51.33
8573;BME280;4324;42.012;24.872;2023-05-02T02:35:05;99386.63;;;13.56;51.42
8573;BME280;4324;42.012;24.872;2023-05-02T02:37:38;99391.59;;;13.60;51.00
8573;BME280;4324;42.012;24.872;2023-05-02T02:40:11;99399.25;;;13.63;51.47
8573;BME280;4324;42.012;24.872;2023-05-02T02:42:44;99409.88;;;13.63;51.54
8573;BME280;4324;42.012;24.872;2023-05-02T02:45:23;99406.22;;;13.64;51.36
8573;BME280;4324;42.012;24.872;2023-05-02T02:48:01;99414.19;;;13.64;51.53
8573;BME280;4324;42.012;24.872;2023-05-02T02:50:31;99397.47;;;13.55;51.33
8573;BME280;4324;42.012;24.872;2023-05-02T02:53:02;99390.84;;;13.51;51.49
8573;BME280;4324;42.012;24.872;2023-05-02T02:55:37;99415.41;;;13.61;52.58
8573;BME280;4324;42.012;24.872;2023-05-02T02:58:16;99399.66;;;13.51;52.43
8573;BME280;4324;42.012;24.872;2023-05-02T03:00:45;99368.66;;;13.36;52.02
8573;BME280;4324;42.012;24.872;2023-05-02T03:03:14;99424.34;;;13.60;51.68
8573;BME280;4324;42.012;24.872;2023-05-02T03:05:42;99440.16;;;13.62;51.76
8573;BME280;4324;42.012;24.872;2023-05-02T03:08:10;99418.94;;;13.53;51.96
8573;BME280;4324;42.012;24.872;2023-05-02T03:10:38;99435.00;;;13.60;51.81
8573;BME280;4324;42.012;24.872;2023-05-02T03:13:05;99441.53;;;13.58;51.83
8573;BME280;4324;42.012;24.872;2023-05-02T03:15:59;99413.69;;;13.37;52.35
8573;BME280;4324;42.012;24.872;2023-05-02T03:18:32;99435.25;;;13.50;52.86
8573;BME280;4324;42.012;24.872;2023-05-02T03:20:59;99438.25;;;13.47;54.41
8573;BME280;4324;42.012;24.872;2023-05-02T03:23:28;99439.91;;;13.48;55.12
8573;BME280;4324;42.012;24.872;2023-05-02T03:25:55;99440.72;;;13.49;55.00
8573;BME280;4324;42.012;24.872;2023-05-02T03:28:22;99421.03;;;13.35;55.71
8573;BME280;4324;42.012;24.872;2023-05-02T03:30:49;99442.06;;;13.45;55.98
8573;BME280;4324;42.012;24.872;2023-05-02T03:33:16;99453.19;;;13.48;56.85
8573;BME280;4324;42.012;24.872;2023-05-02T03:35:43;99415.91;;;13.25;57.19
8573;BME280;4324;42.012;24.872;2023-05-02T03:38:10;99459.28;;;13.57;57.40
8573;BME280;4324;42.012;24.872;2023-05-02T03:40:38;99437.09;;;13.42;57.63
8573;BME280;4324;42.012;24.872;2023-05-02T03:43:05;99466.44;;;13.56;56.11
8573;BME280;4324;42.012;24.872;2023-05-02T03:45:32;99443.63;;;13.39;56.08
8573;BME280;4324;42.012;24.872;2023-05-02T03:47:59;99465.16;;;13.52;56.50
8573;BME280;4324;42.012;24.872;2023-05-02T03:50:25;99458.72;;;13.47;56.70
8573;BME280;4324;42.012;24.872;2023-05-02T03:52:52;99460.53;;;13.46;55.84
8573;BME280;4324;42.012;24.872;2023-05-02T03:55:19;99463.50;;;13.51;55.23
8573;BME280;4324;42.012;24.872;2023-05-02T03:57:48;99483.03;;;13.67;54.79
8573;BME280;4324;42.012;24.872;2023-05-02T04:00:15;99488.84;;;13.70;54.99
8573;BME280;4324;42.012;24.872;2023-05-02T04:02:42;99477.38;;;13.70;54.75
8573;BME280;4324;42.012;24.872;2023-05-02T04:05:09;99485.31;;;13.78;54.02
8573;BME280;4324;42.012;24.872;2023-05-02T04:07:36;99473.00;;;13.77;54.41
8573;BME280;4324;42.012;24.872;2023-05-02T04:10:03;99489.94;;;13.84;54.77
8573;BME280;4324;42.012;24.872;2023-05-02T04:12:30;99473.84;;;13.77;55.08
8573;BME280;4324;42.012;24.872;2023-05-02T04:14:59;99480.13;;;13.85;54.53
8573;BME280;4324;42.012;24.872;2023-05-02T04:17:26;99488.59;;;13.88;54.43
8573;BME280;4324;42.012;24.872;2023-05-02T04:19:52;99497.41;;;13.89;55.05
8573;BME280;4324;42.012;24.872;2023-05-02T04:22:19;99474.53;;;13.71;55.36
8573;BME280;4324;42.012;24.872;2023-05-02T04:24:46;99506.22;;;13.89;56.29
8573;BME280;4324;42.012;24.872;2023-05-02T04:27:13;99496.56;;;13.88;55.74
8573;BME280;4324;42.012;24.872;2023-05-02T04:29:40;99504.81;;;14.01;56.28
8573;BME280;4324;42.012;24.872;2023-05-02T04:32:08;99512.91;;;14.08;55.98
8573;BME280;4324;42.012;24.872;2023-05-02T04:34:36;99506.06;;;14.14;56.89
8573;BME280;4324;42.012;24.872;2023-05-02T04:37:02;99505.81;;;14.23;57.39
8573;BME280;4324;42.012;24.872;2023-05-02T04:39:29;99512.84;;;14.24;57.09
8573;BME280;4324;42.012;24.872;2023-05-02T04:41:56;99505.00;;;14.23;57.49
8573;BME280;4324;42.012;24.872;2023-05-02T04:44:23;99511.34;;;14.22;58.65
8573;BME280;4324;42.012;24.872;2023-05-02T04:46:50;99505.59;;;14.10;59.21
8573;BME280;4324;42.012;24.872;2023-05-02T04:49:18;99511.47;;;13.97;59.33
8573;BME280;4324;42.012;24.872;2023-05-02T04:51:45;99506.94;;;13.83;59.93
8573;BME280;4324;42.012;24.872;2023-05-02T04:54:13;99506.31;;;13.73;60.55
8573;BME280;4324;42.012;24.872;2023-05-02T04:56:40;99503.69;;;13.65;60.95
8573;BME280;4324;42.012;24.872;2023-05-02T04:59:07;99514.34;;;13.65;61.58
8573;BME280;4324;42.012;24.872;2023-05-02T05:01:33;99512.31;;;13.67;61.71
8573;BME280;4324;42.012;24.872;2023-05-02T05:04:00;99501.81;;;13.73;61.82
8573;BME280;4324;42.012;24.872;2023-05-02T05:06:29;99521.53;;;13.87;61.95
8573;BME280;4324;42.012;24.872;2023-05-02T05:08:56;99522.81;;;13.99;62.12
8573;BME280;4324;42.012;24.872;2023-05-02T05:11:24;99517.38;;;14.16;61.65
8573;BME280;4324;42.012;24.872;2023-05-02T05:13:51;99504.31;;;14.29;61.41
8573;BME280;4324;42.012;24.872;2023-05-02T05:16:18;99507.50;;;14.47;60.75
8573;BME280;4324;42.012;24.872;2023-05-02T05:18:45;99510.16;;;14.70;60.49
8573;BME280;4324;42.012;24.872;2023-05-02T05:21:13;99510.47;;;14.90;60.34
8573;BME280;4324;42.012;24.872;2023-05-02T05:23:41;99508.94;;;15.11;59.66
8573;BME280;4324;42.012;24.872;2023-05-02T05:26:11;99522.09;;;15.27;59.31
8573;BME280;4324;42.012;24.872;2023-05-02T05:28:39;99514.84;;;15.36;58.88
8573;BME280;4324;42.012;24.872;2023-05-02T05:31:08;99523.84;;;15.49;58.69
8573;BME280;4324;42.012;24.872;2023-05-02T05:33:35;99520.44;;;15.56;58.68
8573;BME280;4324;42.012;24.872;2023-05-02T05:36:04;99524.38;;;15.60;59.18
8573;BME280;4324;42.012;24.872;2023-05-02T05:38:31;99519.63;;;15.55;59.27
8573;BME280;4324;42.012;24.872;2023-05-02T05:40:59;99522.66;;;15.52;59.46
8573;BME280;4324;42.012;24.872;2023-05-02T05:43:26;99532.03;;;15.48;60.08
8573;BME280;4324;42.012;24.872;2023-05-02T05:45:54;99476.66;;;15.20;60.48
8573;BME280;4324;42.012;24.872;2023-05-02T05:48:21;99531.38;;;15.61;60.54
8573;BME280;4324;42.012;24.872;2023-05-02T05:50:49;99516.50;;;15.52;60.83
8573;BME280;4324;42.012;24.872;2023-05-02T05:53:17;99519.81;;;15.54;61.21
8573;BME280;4324;42.012;24.872;2023-05-02T05:55:43;99537.75;;;15.60;61.40
8573;BME280;4324;42.012;24.872;2023-05-02T05:58:12;99520.19;;;15.51;61.48
8573;BME280;4324;42.012;24.872;2023-05-02T06:00:39;99536.25;;;15.57;62.45
8573;BME280;4324;42.012;24.872;2023-05-02T06:03:07;99544.25;;;15.57;62.82
8573;BME280;4324;42.012;24.872;2023-05-02T06:05:34;99447.69;;;15.03;62.92
8573;BME280;4324;42.012;24.872;2023-05-02T06:08:01;99540.25;;;15.76;63.11
8573;BME280;4324;42.012;24.872;2023-05-02T06:10:29;99541.53;;;15.80;63.24
8573;BME280;4324;42.012;24.872;2023-05-02T06:12:56;99539.94;;;15.86;63.36
8573;BME280;4324;42.012;24.872;2023-05-02T06:15:25;99542.44;;;15.87;63.32
8573;BME280;4324;42.012;24.872;2023-05-02T06:17:52;99541.22;;;15.90;63.33
8573;BME280;4324;42.012;24.872;2023-05-02T06:20:19;99548.88;;;15.93;63.47
8573;BME280;4324;42.012;24.872;2023-05-02T06:22:45;99539.22;;;15.92;63.58
8573;BME280;4324;42.012;24.872;2023-05-02T06:25:12;99541.09;;;15.98;63.33
8573;BME280;4324;42.012;24.872;2023-05-02T06:27:39;99546.63;;;16.11;63.30
8573;BME280;4324;42.012;24.872;2023-05-02T06:30:07;99535.72;;;16.13;63.24
8573;BME280;4324;42.012;24.872;2023-05-02T06:32:35;99544.09;;;16.25;63.22
8573;BME280;4324;42.012;24.872;2023-05-02T06:35:03;99538.94;;;16.23;62.87
8573;BME280;4324;42.012;24.872;2023-05-02T06:37:33;99544.59;;;16.35;63.11
8573;BME280;4324;42.012;24.872;2023-05-02T06:40:00;99540.81;;;16.44;62.91
8573;BME280;4324;42.012;24.872;2023-05-02T06:42:27;99541.88;;;16.50;63.09
8573;BME280;4324;42.012;24.872;2023-05-02T06:44:55;99518.00;;;16.48;62.70
8573;BME280;4324;42.012;24.872;2023-05-02T06:47:22;99523.66;;;16.60;62.81
8573;BME280;4324;42.012;24.872;2023-05-02T06:49:50;99532.09;;;16.78;62.51
8573;BME280;4324;42.012;24.872;2023-05-02T06:52:18;99529.91;;;16.88;61.69
8573;BME280;4324;42.012;24.872;2023-05-02T06:54:45;99527.84;;;16.90;61.22
8573;BME280;4324;42.012;24.872;2023-05-02T06:57:12;99526.25;;;16.96;60.81
8573;BME280;4324;42.012;24.872;2023-05-02T06:59:39;99520.09;;;16.96;60.71
8573;BME280;4324;42.012;24.872;2023-05-02T07:02:06;99525.94;;;17.12;60.39
8573;BME280;4324;42.012;24.872;2023-05-02T07:04:32;99523.31;;;17.19;60.44
8573;BME280;4324;42.012;24.872;2023-05-02T07:07:01;99520.88;;;17.24;59.87
8573;BME280;4324;42.012;24.872;2023-05-02T07:09:28;99525.06;;;17.33;59.48
8573;BME280;4324;42.012;24.872;2023-05-02T07:11:55;99523.47;;;17.46;58.67
8573;BME280;4324;42.012;24.872;2023-05-02T07:14:22;99527.88;;;17.60;58.04
8573;BME280;4324;42.012;24.872;2023-05-02T07:16:49;99525.69;;;17.70;57.48
8573;BME280;4324;42.012;24.872;2023-05-02T07:19:16;99529.44;;;17.76;56.78
8573;BME280;4324;42.012;24.872;2023-05-02T07:21:42;99518.06;;;17.74;56.63
8573;BME280;4324;42.012;24.872;2023-05-02T07:24:11;99512.34;;;17.77;56.31
8573;BME280;4324;42.012;24.872;2023-05-02T07:26:38;99520.59;;;17.82;56.10
8573;BME280;4324;42.012;24.872;2023-05-02T07:29:05;99517.13;;;17.88;55.38
8573;BME280;4324;42.012;24.872;2023-05-02T07:31:34;99511.34;;;17.84;54.63
8573;BME280;4324;42.012;24.872;2023-05-02T07:34:00;99513.19;;;17.90;54.56
8573;BME280;4324;42.012;24.872;2023-05-02T07:36:27;99511.38;;;17.98;54.18
8573;BME280;4324;42.012;24.872;2023-05-02T07:38:54;99511.63;;;18.03;53.86
8573;BME280;4324;42.012;24.872;2023-05-02T07:41:23;99517.81;;;18.10;53.44
8573;BME280;4324;42.012;24.872;2023-05-02T07:43:49;99517.63;;;18.18;53.55
8573;BME280;4324;42.012;24.872;2023-05-02T07:46:16;99518.66;;;18.24;53.26
8573;BME280;4324;42.012;24.872;2023-05-02T07:48:43;99511.69;;;18.36;53.12
8573;BME280;4324;42.012;24.872;2023-05-02T07:51:10;99489.41;;;18.42;53.16
8573;BME280;4324;42.012;24.872;2023-05-02T07:53:37;99508.84;;;18.71;52.69
8573;BME280;4324;42.012;24.872;2023-05-02T07:56:05;99511.72;;;18.82;52.53
8573;BME280;4324;42.012;24.872;2023-05-02T07:58:34;99500.78;;;18.91;52.30
8573;BME280;4324;42.012;24.872;2023-05-02T08:01:01;99450.03;;;18.82;52.23
8573;BME280;4324;42.012;24.872;2023-05-02T08:03:28;99497.81;;;19.39;51.87
8573;BME280;4324;42.012;24.872;2023-05-02T08:05:55;99486.41;;;19.50;51.83
8573;BME280;4324;42.012;24.872;2023-05-02T08:08:22;99494.00;;;19.73;51.40
8573;BME280;4324;42.012;24.872;2023-05-02T08:10:49;99487.13;;;19.83;51.23
8573;BME280;4324;42.012;24.872;2023-05-02T08:13:16;99482.19;;;19.80;51.03
8573;BME280;4324;42.012;24.872;2023-05-02T08:15:45;99469.75;;;19.86;51.01
8573;BME280;4324;42.012;24.872;2023-05-02T08:18:11;99490.31;;;20.05;50.91
8573;BME280;4324;42.012;24.872;2023-05-02T08:20:38;99493.16;;;20.17;50.74
8573;BME280;4324;42.012;24.872;2023-05-02T08:23:05;99483.34;;;20.29;50.15
8573;BME280;4324;42.012;24.872;2023-05-02T08:25:32;99467.22;;;20.29;49.03
8573;BME280;4324;42.012;24.872;2023-05-02T08:27:59;99452.22;;;20.15;48.96
8573;BME280;4324;42.012;24.872;2023-05-02T08:30:26;99447.19;;;20.25;48.05
8573;BME280;4324;42.012;24.872;2023-05-02T08:32:54;99462.19;;;20.40;46.86
8573;BME280;4324;42.012;24.872;2023-05-02T08:35:21;99443.44;;;20.26;45.23
8573;BME280;4324;42.012;24.872;2023-05-02T08:37:48;99462.00;;;20.35;44.55
8573;BME280;4324;42.012;24.872;2023-05-02T08:40:16;99462.00;;;20.35;44.17
8573;BME280;4324;42.012;24.872;2023-05-02T08:42:43;99455.31;;;20.44;43.67
8573;BME280;4324;42.012;24.872;2023-05-02T08:45:11;99449.25;;;20.55;43.67
8573;BME280;4324;42.012;24.872;2023-05-02T08:47:39;99447.19;;;20.75;43.15
8573;BME280;4324;42.012;24.872;2023-05-02T08:50:09;99449.25;;;20.98;43.20
8573;BME280;4324;42.012;24.872;2023-05-02T08:52:36;99429.44;;;21.11;42.29
8573;BME280;4324;42.012;24.872;2023-05-02T08:55:05;99446.09;;;21.45;41.71
8573;BME280;4324;42.012;24.872;2023-05-02T08:57:32;99433.94;;;21.54;40.81
8573;BME280;4324;42.012;24.872;2023-05-02T08:59:59;99442.47;;;21.69;40.44
8573;BME280;4324;42.012;24.872;2023-05-02T09:02:44;99435.69;;;21.79;39.88
8573;BME280;4324;42.012;24.872;2023-05-02T09:05:19;99441.72;;;21.92;39.73
8573;BME280;4324;42.012;24.872;2023-05-02T09:07:50;99431.41;;;21.89;39.44
8573;BME280;4324;42.012;24.872;2023-05-02T09:10:17;99422.16;;;21.97;39.46
8573;BME280;4324;42.012;24.872;2023-05-02T09:12:44;99426.75;;;22.08;39.35
8573;BME280;4324;42.012;24.872;2023-05-02T09:15:12;99411.94;;;22.17;39.19
8573;BME280;4324;42.012;24.872;2023-05-02T09:17:41;99408.91;;;22.26;39.68
8573;BME280;4324;42.012;24.872;2023-05-02T09:20:10;99412.19;;;22.39;38.80
8573;BME280;4324;42.012;24.872;2023-05-02T09:22:39;99411.63;;;22.49;38.33
8573;BME280;4324;42.012;24.872;2023-05-02T09:25:13;99409.63;;;22.56;38.43
8573;BME280;4324;42.012;24.872;2023-05-02T09:27:57;99403.88;;;22.53;39.42
8573;BME280;4324;42.012;24.872;2023-05-02T09:30:26;99396.84;;;22.52;39.58
8573;BME280;4324;42.012;24.872;2023-05-02T09:32:53;99330.38;;;22.04;40.73
8573;BME280;4324;42.012;24.872;2023-05-02T09:35:21;99393.53;;;22.50;40.82
8573;BME280;4324;42.012;24.872;2023-05-02T09:37:53;99379.69;;;22.46;39.90
8573;BME280;4324;42.012;24.872;2023-05-02T09:40:20;99377.59;;;22.48;39.60
8573;BME280;4324;42.012;24.872;2023-05-02T09:42:47;99385.09;;;22.69;39.33
8573;BME280;4324;42.012;24.872;2023-05-02T09:45:21;99389.78;;;22.74;38.88
8573;BME280;4324;42.012;24.872;2023-05-02T09:47:48;99385.22;;;22.75;38.72
8573;BME280;4324;42.012;24.872;2023-05-02T09:50:31;99375.47;;;22.74;37.69
8573;BME280;4324;42.012;24.872;2023-05-02T09:53:05;99376.28;;;22.86;37.35
8573;BME280;4324;42.012;24.872;2023-05-02T09:55:32;99354.78;;;22.91;36.84
8573;BME280;4324;42.012;24.872;2023-05-02T09:57:59;99375.56;;;23.02;36.49
8573;BME280;4324;42.012;24.872;2023-05-02T10:00:40;99341.09;;;22.81;36.00
8573;BME280;4324;42.012;24.872;2023-05-02T10:03:08;99358.44;;;22.85;35.90
8573;BME280;4324;42.012;24.872;2023-05-02T10:05:36;99352.78;;;22.86;35.49
8573;BME280;4324;42.012;24.872;2023-05-02T10:08:07;99362.22;;;22.96;35.11
8573;BME280;4324;42.012;24.872;2023-05-02T10:10:35;99350.44;;;23.02;34.68
8573;BME280;4324;42.012;24.872;2023-05-02T10:13:03;99333.41;;;23.01;34.45
8573;BME280;4324;42.012;24.872;2023-05-02T10:15:31;99355.69;;;23.20;34.23
8573;BME280;4324;42.012;24.872;2023-05-02T10:17:59;99343.00;;;23.21;34.08
8573;BME280;4324;42.012;24.872;2023-05-02T10:20:32;99307.47;;;23.00;33.75
8573;BME280;4324;42.012;24.872;2023-05-02T10:23:00;99252.34;;;22.73;32.75
8573;BME280;4324;42.012;24.872;2023-05-02T10:25:28;99323.41;;;23.13;32.46
8573;BME280;4324;42.012;24.872;2023-05-02T10:27:55;99342.44;;;23.18;31.84
8573;BME280;4324;42.012;24.872;2023-05-02T10:30:24;99334.41;;;23.24;31.20
8573;BME280;4324;42.012;24.872;2023-05-02T10:32:52;99346.38;;;23.28;31.22
8573;BME280;4324;42.012;24.872;2023-05-02T10:35:20;99323.72;;;23.17;30.93
8573;BME280;4324;42.012;24.872;2023-05-02T10:37:49;99340.75;;;23.17;30.48
8573;BME280;4324;42.012;24.872;2023-05-02T10:40:17;99303.81;;;23.06;30.48
8573;BME280;4324;42.012;24.872;2023-05-02T10:42:46;99314.34;;;23.19;30.36
8573;BME280;4324;42.012;24.872;2023-05-02T10:45:30;99329.13;;;23.29;30.61
8573;BME280;4324;42.012;24.872;2023-05-02T10:48:17;99320.03;;;23.35;30.50
8573;BME280;4324;42.012;24.872;2023-05-02T10:50:46;99318.59;;;23.44;30.50
8573;BME280;4324;42.012;24.872;2023-05-02T10:53:33;99313.34;;;23.54;29.99
8573;BME280;4324;42.012;24.872;2023-05-02T10:56:12;99330.84;;;23.63;29.90
8573;BME280;4324;42.012;24.872;2023-05-02T10:58:42;99320.84;;;23.64;29.57
8573;BME280;4324;42.012;24.872;2023-05-02T11:01:31;99319.66;;;23.72;29.69
8573;BME280;4324;42.012;24.872;2023-05-02T11:04:01;99302.34;;;23.73;30.01
8573;BME280;4324;42.012;24.872;2023-05-02T11:06:30;99311.38;;;23.95;29.66
8573;BME280;4324;42.012;24.872;2023-05-02T11:09:30;99316.47;;;24.08;29.77
8573;BME280;4324;42.012;24.872;2023-05-02T11:11:58;99298.28;;;24.04;29.55
8573;BME280;4324;42.012;24.872;2023-05-02T11:14:47;99305.06;;;24.06;29.63
8573;BME280;4324;42.012;24.872;2023-05-02T11:17:15;99310.00;;;23.93;29.18
8573;BME280;4324;42.012;24.872;2023-05-02T11:22:53;99295.50;;;23.82;29.22
8573;BME280;4324;42.012;24.872;2023-05-02T11:25:45;99304.75;;;23.86;28.68
8573;BME280;4324;42.012;24.872;2023-05-02T11:28:39;99304.59;;;23.93;29.35
8573;BME280;4324;42.012;24.872;2023-05-02T11:31:09;99292.69;;;23.94;29.42
8573;BME280;4324;42.012;24.872;2023-05-02T11:33:55;99290.63;;;24.18;29.47
8573;BME280;4324;42.012;24.872;2023-05-02T11:36:29;99295.53;;;24.21;28.78
8573;BME280;4324;42.012;24.872;2023-05-02T11:38:58;99281.53;;;24.24;28.34
8573;BME280;4324;42.012;24.872;2023-05-02T11:41:37;99283.06;;;24.36;28.14
8573;BME280;4324;42.012;24.872;2023-05-02T11:44:04;99282.09;;;24.43;27.50
8573;BME280;4324;42.012;24.872;2023-05-02T11:46:33;99268.81;;;24.41;27.41
8573;BME280;4324;42.012;24.872;2023-05-02T11:49:02;99283.63;;;24.55;27.46
8573;BME280;4324;42.012;24.872;2023-05-02T11:51:29;99271.47;;;24.58;27.28
8573;BME280;4324;42.012;24.872;2023-05-02T11:53:57;99268.44;;;24.54;26.76
8573;BME280;4324;42.012;24.872;2023-05-02T11:56:24;99258.94;;;24.52;27.05
8573;BME280;4324;42.012;24.872;2023-05-02T11:58:57;99253.22;;;24.70;27.18
8573;BME280;4324;42.012;24.872;2023-05-02T12:01:24;99228.78;;;24.65;26.84
8573;BME280;4324;42.012;24.872;2023-05-02T12:04:02;99249.44;;;24.93;26.91
8573;BME280;4324;42.012;24.872;2023-05-02T12:06:28;99251.16;;;25.04;27.00
8573;BME280;4324;42.012;24.872;2023-05-02T12:09:06;99246.88;;;25.08;26.81
8573;BME280;4324;42.012;24.872;2023-05-02T12:11:33;99247.66;;;25.04;26.31
8573;BME280;4324;42.012;24.872;2023-05-02T12:14:02;99236.69;;;24.94;26.31
8573;BME280;4324;42.012;24.872;2023-05-02T12:16:30;99246.63;;;24.88;26.15
8573;BME280;4324;42.012;24.872;2023-05-02T12:18:57;99215.09;;;24.77;26.24
8573;BME280;4324;42.012;24.872;2023-05-02T12:21:27;99235.31;;;24.91;26.67
8573;BME280;4324;42.012;24.872;2023-05-02T12:23:55;99217.94;;;24.87;26.33
8573;BME280;4324;42.012;24.872;2023-05-02T12:26:24;99230.47;;;24.93;26.19
8573;BME280;4324;42.012;24.872;2023-05-02T12:28:54;99231.59;;;24.97;26.13
8573;BME280;4324;42.012;24.872;2023-05-02T12:31:23;99219.97;;;25.02;26.02
8573;BME280;4324;42.012;24.872;2023-05-02T12:33:50;99208.53;;;24.95;25.75
8573;BME280;4324;42.012;24.872;2023-05-02T12:36:19;99215.28;;;24.92;25.58
8573;BME280;4324;42.012;24.872;2023-05-02T12:38:49;99200.81;;;24.81;25.74
8573;BME280;4324;42.012;24.872;2023-05-02T12:41:17;99205.16;;;24.82;25.67
8573;BME280;4324;42.012;24.872;2023-05-02T12:43:46;99190.22;;;24.80;25.46
8573;BME280;4324;42.012;24.872;2023-05-02T12:46:13;99192.94;;;24.80;25.74
8573;BME280;4324;42.012;24.872;2023-05-02T12:48:40;99177.16;;;24.72;25.46
8573;BME280;4324;42.012;24.872;2023-05-02T12:51:21;99176.38;;;24.76;25.38
8573;BME280;4324;42.012;24.872;2023-05-02T12:53:50;99163.66;;;24.77;25.76
8573;BME280;4324;42.012;24.872;2023-05-02T12:56:17;99167.50;;;24.81;25.67
8573;BME280;4324;42.012;24.872;2023-05-02T12:58:46;99163.75;;;24.87;25.50
8573;BME280;4324;42.012;24.872;2023-05-02T13:01:13;99173.28;;;24.90;25.59
8573;BME280;4324;42.012;24.872;2023-05-02T13:03:41;99162.16;;;24.91;25.44
8573;BME280;4324;42.012;24.872;2023-05-02T13:06:09;99169.19;;;24.87;24.99
8573;BME280;4324;42.012;24.872;2023-05-02T13:08:36;99165.34;;;24.83;24.66
8573;BME280;4324;42.012;24.872;2023-05-02T13:11:05;99157.72;;;24.80;24.54
8573;BME280;4324;42.012;24.872;2023-05-02T13:13:32;99150.38;;;24.75;24.58
8573;BME280;4324;42.012;24.872;2023-05-02T13:16:00;99110.81;;;24.47;24.64
8573;BME280;4324;42.012;24.872;2023-05-02T13:18:26;99170.41;;;24.74;24.97
8573;BME280;4324;42.012;24.872;2023-05-02T13:20:54;99155.47;;;24.72;24.87
8573;BME280;4324;42.012;24.872;2023-05-02T13:23:21;99165.81;;;24.75;24.63